Time;durP1;ratioP1;P1;durP2;ratioP2;P2;SDS_P1;SDS_P2;PMS_P1;PMS_P2;Temp;Humidity;BMP_temperature;BMP_pressure;BME280_temperature;BME280_humidity;BME280_pressure;Samples;Min_cycle;Max_cycle;Signal;HPM_P1;HPM_P2
2021/12/13 00:01:42;;;;;;;45.60;21.52;;;10.50;99.90;;;;;;5094292;28;20044;-66
2021/12/13 00:04:16;;;;;;;45.75;22.65;;;10.60;99.90;;;;;;5093890;28;20079;-66
2021/12/13 00:06:49;;;;;;;43.60;21.13;;;10.50;99.90;;;;;;5093955;28;20078;-66
2021/12/13 00:09:18;;;;;;;44.45;22.38;;;10.60;99.90;;;;;;5094376;28;20426;-66
2021/12/13 00:11:48;;;;;;;40.25;20.98;;;10.60;99.90;;;;;;5094519;28;20036;-66
2021/12/13 00:14:24;;;;;;;39.35;20.50;;;10.60;99.90;;;;;;5095305;28;20493;-66
2021/12/13 00:16:59;;;;;;;46.30;23.17;;;10.60;99.90;;;;;;5095719;28;20039;-67
2021/12/13 00:19:41;;;;;;;36.65;21.20;;;10.60;99.90;;;;;;5095288;28;20043;-67
2021/12/13 00:22:33;;;;;;;44.42;20.77;;;10.70;99.90;;;;;;5094949;28;20517;-67
2021/12/13 00:25:19;;;;;;;39.00;21.13;;;10.60;99.90;;;;;;5095360;28;20346;-67
2021/12/13 00:27:59;;;;;;;37.00;20.50;;;10.60;99.90;;;;;;5095293;28;20039;-67
2021/12/13 00:30:28;;;;;;;34.38;19.55;;;10.50;99.90;;;;;;5095405;28;20036;-66
2021/12/13 00:33:20;;;;;;;35.28;20.17;;;10.60;99.90;;;;;;5095487;28;20040;-66
2021/12/13 00:36:11;;;;;;;35.40;18.90;;;10.60;99.90;;;;;;5095457;28;20047;-66
2021/12/13 00:38:43;;;;;;;33.78;18.80;;;10.60;99.90;;;;;;5095410;28;20043;-67
2021/12/13 00:41:13;;;;;;;36.17;20.10;;;10.60;99.90;;;;;;5095292;28;20040;-67
2021/12/13 00:43:52;;;;;;;37.80;20.50;;;10.60;99.90;;;;;;5095590;28;20036;-66
2021/12/13 00:46:19;;;;;;;40.60;19.90;;;10.60;99.90;;;;;;5095232;28;20064;-66
2021/12/13 00:48:49;;;;;;;36.85;18.42;;;10.60;99.90;;;;;;5095077;28;20047;-67
2021/12/13 00:51:27;;;;;;;35.85;18.67;;;10.60;99.90;;;;;;5095079;28;20040;-66
2021/12/13 00:53:59;;;;;;;40.25;19.95;;;10.60;99.90;;;;;;5094561;28;20453;-66
2021/12/13 00:56:46;;;;;;;39.58;21.13;;;10.60;99.90;;;;;;5094583;28;20040;-66
2021/12/13 00:59:30;;;;;;;33.30;20.27;;;10.60;99.90;;;;;;5093775;28;20104;-66
2021/12/13 01:02:10;;;;;;;33.10;18.75;;;10.60;99.90;;;;;;5093758;28;20040;-66
2021/12/13 01:04:48;;;;;;;35.20;19.42;;;10.50;99.90;;;;;;5093400;28;20110;-66
2021/12/13 01:07:34;;;;;;;37.08;19.80;;;10.60;99.90;;;;;;5093878;28;20063;-66
2021/12/13 01:10:24;;;;;;;39.45;21.52;;;10.60;99.90;;;;;;5079498;28;20044;-66
2021/12/13 01:12:51;;;;;;;35.63;19.77;;;10.50;99.90;;;;;;5093556;28;20051;-65
2021/12/13 01:15:27;;;;;;;37.47;19.02;;;10.50;99.90;;;;;;5093316;28;20457;-65
2021/12/13 01:18:02;;;;;;;36.35;19.10;;;10.60;99.90;;;;;;5093722;28;20040;-66
2021/12/13 01:21:00;;;;;;;35.63;19.50;;;10.60;99.90;;;;;;5097101;28;20054;-66
2021/12/13 01:28:48;;;;;;;33.67;18.27;;;10.50;99.90;;;;;;5098524;28;20051;-66
2021/12/13 01:31:25;;;;;;;27.80;16.27;;;10.50;99.90;;;;;;5096561;28;20054;-66
2021/12/13 01:33:52;;;;;;;30.30;15.80;;;10.50;99.90;;;;;;5097838;28;20051;-65
2021/12/13 01:36:24;;;;;;;31.02;17.13;;;10.60;99.90;;;;;;5097340;28;20040;-66
2021/12/13 01:38:54;;;;;;;27.30;16.55;;;10.50;99.90;;;;;;5097466;28;20093;-66
2021/12/13 01:41:30;;;;;;;32.22;17.23;;;10.60;99.90;;;;;;5095987;28;20123;-66
2021/12/13 01:44:07;;;;;;;32.05;17.45;;;10.60;99.90;;;;;;5097259;28;20172;-66
2021/12/13 01:46:44;;;;;;;30.80;18.08;;;10.60;99.90;;;;;;5096712;28;20051;-66
2021/12/13 01:49:10;;;;;;;28.20;16.90;;;10.60;99.90;;;;;;5097246;28;20044;-65
2021/12/13 01:51:38;;;;;;;29.00;17.63;;;10.60;99.90;;;;;;5096496;28;20425;-65
2021/12/13 01:54:25;;;;;;;28.65;17.20;;;10.60;99.90;;;;;;5097025;28;20047;-66
2021/12/13 01:59:51;;;;;;;31.10;17.30;;;10.60;99.90;;;;;;5096791;28;20048;-66
2021/12/13 02:02:26;;;;;;;30.67;17.98;;;10.60;99.90;;;;;;5095941;28;20028;-66
2021/12/13 02:05:00;;;;;;;29.40;16.70;;;10.60;99.90;;;;;;5096512;28;20052;-66
2021/12/13 02:07:35;;;;;;;26.23;16.83;;;10.60;99.90;;;;;;5096550;28;20047;-66
2021/12/13 02:10:00;;;;;;;;;;;10.60;99.90;;;;;;5097053;28;20040;-66
2021/12/13 02:12:29;;;;;;;32.80;17.25;;;10.60;99.90;;;;;;5095648;28;19927;-66
2021/12/13 02:17:43;;;;;;;26.27;15.57;;;10.60;99.90;;;;;;5096323;28;20073;-65
2021/12/13 02:20:21;;;;;;;22.95;15.20;;;10.60;99.90;;;;;;5095890;28;20044;-66
2021/12/13 02:22:49;;;;;;;25.65;13.85;;;10.60;99.90;;;;;;5096610;28;20055;-66
2021/12/13 02:25:24;;;;;;;24.42;14.13;;;10.50;99.90;;;;;;5096367;28;20049;-65
2021/12/13 02:28:04;;;;;;;22.63;14.95;;;10.40;99.90;;;;;;5096649;28;20067;-66
2021/12/13 02:30:53;;;;;;;22.90;14.15;;;10.50;99.90;;;;;;5095785;28;20036;-65
2021/12/13 02:33:25;;;;;;;22.92;14.20;;;10.40;99.90;;;;;;5096284;28;20048;-66
2021/12/13 02:35:58;;;;;;;21.45;12.57;;;10.30;99.90;;;;;;5096029;28;20107;-66
2021/12/13 02:38:25;;;;;;;24.80;14.57;;;10.40;99.90;;;;;;5096246;28;20036;-66
2021/12/13 02:40:52;;;;;;;21.52;13.23;;;10.30;99.90;;;;;;5096057;28;20055;-65
2021/12/13 02:43:22;;;;;;;21.63;13.63;;;10.30;99.90;;;;;;5096460;28;20032;-66
2021/12/13 02:45:52;;;;;;;24.52;12.48;;;10.30;99.90;;;;;;5075452;28;20209;-66
2021/12/13 02:48:24;;;;;;;19.58;11.23;;;10.30;99.90;;;;;;5075658;28;20478;-66
2021/12/13 02:51:06;;;;;;;21.02;11.63;;;10.30;99.90;;;;;;5089087;28;20036;-66
2021/12/13 02:53:46;;;;;;;20.67;10.88;;;10.20;99.90;;;;;;5094900;28;20055;-66
2021/12/13 02:56:13;;;;;;;17.17;10.15;;;10.30;99.90;;;;;;5095429;28;20369;-66
2021/12/13 02:58:40;;;;;;;18.33;9.63;;;10.30;99.90;;;;;;5095748;28;20059;-66
2021/12/13 03:01:14;;;;;;;16.50;8.98;;;10.30;99.90;;;;;;5095329;28;20365;-66
2021/12/13 03:03:45;;;;;;;15.77;8.48;;;10.20;99.90;;;;;;5095734;28;20032;-66
2021/12/13 03:06:14;;;;;;;16.52;7.90;;;10.20;99.90;;;;;;5095562;28;20036;-66
2021/12/13 03:08:49;;;;;;;16.35;8.05;;;10.20;99.90;;;;;;5095723;28;20044;-66
2021/12/13 03:11:28;;;;;;;14.05;6.88;;;10.20;99.90;;;;;;5095627;28;20040;-66
2021/12/13 03:14:00;;;;;;;16.08;7.03;;;10.10;99.90;;;;;;5095696;28;20089;-66
2021/12/13 03:16:31;;;;;;;11.82;6.70;;;10.10;99.90;;;;;;5094712;28;20515;-66
2021/12/13 03:18:59;;;;;;;13.63;6.78;;;10.10;99.90;;;;;;5095860;28;20067;-66
2021/12/13 03:21:44;;;;;;;17.05;6.50;;;10.10;99.90;;;;;;5094703;28;20053;-66
2021/12/13 03:24:37;;;;;;;14.10;6.75;;;10.10;99.90;;;;;;5095324;28;20106;-65
2021/12/13 03:27:25;;;;;;;13.80;6.63;;;10.10;99.90;;;;;;5095556;28;20078;-65
2021/12/13 03:30:38;;;;;;;12.07;6.18;;;10.10;99.90;;;;;;5094959;28;20032;-66
2021/12/13 03:33:14;;;;;;;15.75;6.90;;;10.10;99.90;;;;;;5095489;28;20115;-66
2021/12/13 03:35:49;;;;;;;12.88;6.72;;;10.10;99.90;;;;;;5077097;28;20035;-66
2021/12/13 03:38:26;;;;;;;14.55;6.75;;;10.10;99.90;;;;;;5094178;28;20151;-66
2021/12/13 03:40:56;;;;;;;17.38;7.50;;;10.10;99.90;;;;;;5094567;28;20782;-65
2021/12/13 03:43:51;;;;;;;12.75;6.75;;;10.00;99.90;;;;;;5094515;28;20028;-65
2021/12/13 03:46:20;;;;;;;11.20;7.38;;;10.00;99.90;;;;;;5072704;28;20052;-66
2021/12/13 03:48:48;;;;;;;14.88;7.90;;;10.00;99.90;;;;;;5094997;28;20065;-66
2021/12/13 03:51:26;;;;;;;14.98;7.90;;;9.90;99.90;;;;;;5094404;28;20122;-66
2021/12/13 03:53:55;;;;;;;14.48;8.05;;;9.90;99.90;;;;;;5094649;28;20449;-66
2021/12/13 03:56:28;;;;;;;16.92;8.50;;;9.90;99.90;;;;;;5093165;28;20050;-66
2021/12/13 03:59:02;;;;;;;14.43;9.07;;;9.80;99.90;;;;;;5093781;28;20040;-66
2021/12/13 04:01:46;;;;;;;17.88;9.90;;;9.80;99.90;;;;;;5094254;28;20136;-65
2021/12/13 04:04:23;;;;;;;15.70;9.77;;;9.70;99.90;;;;;;5094399;28;20338;-65
2021/12/13 04:06:54;;;;;;;17.13;9.55;;;9.80;99.90;;;;;;5094614;28;20266;-65
2021/12/13 04:09:22;;;;;;;17.98;10.00;;;9.90;99.90;;;;;;5094570;28;20036;-67
2021/12/13 04:11:53;;;;;;;15.30;9.82;;;9.80;99.90;;;;;;5094224;28;20040;-65
2021/12/13 04:14:26;;;;;;;15.98;9.52;;;9.80;99.90;;;;;;5093985;28;20658;-65
2021/12/13 04:17:19;;;;;;;14.75;8.50;;;9.80;99.90;;;;;;5094425;28;20461;-64
2021/12/13 04:19:59;;;;;;;16.20;9.52;;;9.80;99.90;;;;;;5094006;28;20059;-65
2021/12/13 04:22:33;;;;;;;14.35;9.20;;;9.90;99.90;;;;;;5093952;28;20052;-65
2021/12/13 04:25:12;;;;;;;14.63;8.13;;;9.90;99.90;;;;;;5093999;28;20060;-65
2021/12/13 04:27:59;;;;;;;12.73;7.82;;;9.80;99.90;;;;;;5092990;28;20064;-65
2021/12/13 04:30:39;;;;;;;15.35;7.97;;;9.80;99.90;;;;;;5093826;28;20055;-65
2021/12/13 04:33:18;;;;;;;11.05;7.15;;;9.80;99.90;;;;;;5094223;28;20403;-65
2021/12/13 04:35:50;;;;;;;13.63;7.47;;;9.80;99.90;;;;;;5093907;28;20044;-65
2021/12/13 04:38:21;;;;;;;12.63;7.15;;;9.80;99.90;;;;;;5094114;28;20058;-65
2021/12/13 04:40:47;;;;;;;12.15;7.15;;;9.80;99.90;;;;;;5093766;28;20086;-65
2021/12/13 04:43:15;;;;;;;12.25;7.25;;;9.80;99.90;;;;;;5094141;28;20067;-66
2021/12/13 04:45:45;;;;;;;12.93;7.35;;;9.90;99.90;;;;;;5093540;28;20119;-65
2021/12/13 04:48:17;;;;;;;13.55;6.97;;;9.80;99.90;;;;;;5094069;28;20036;-65
2021/12/13 04:51:18;;;;;;;12.05;7.00;;;9.80;99.90;;;;;;5093549;28;20131;-65
2021/12/13 04:53:47;;;;;;;10.70;6.07;;;9.80;99.90;;;;;;5076157;28;20521;-65
2021/12/13 04:56:22;;;;;;;10.90;6.90;;;9.80;99.90;;;;;;5093721;28;20065;-65
2021/12/13 04:58:53;;;;;;;13.50;7.07;;;9.80;99.90;;;;;;5086638;28;20118;-65
2021/12/13 05:01:21;;;;;;;10.95;6.13;;;9.80;99.90;;;;;;5089544;28;20119;-65
2021/12/13 05:03:52;;;;;;;11.63;6.40;;;9.80;99.90;;;;;;5093815;28;20039;-65
2021/12/13 05:06:21;;;;;;;10.25;6.50;;;9.80;99.90;;;;;;5093514;28;20079;-65
2021/12/13 05:08:51;;;;;;;11.38;6.57;;;9.70;99.90;;;;;;5093581;28;20044;-65
2021/12/13 05:11:17;;;;;;;10.75;6.18;;;9.80;99.90;;;;;;5093469;28;20125;-65
2021/12/13 05:13:50;;;;;;;13.90;7.72;;;9.80;99.90;;;;;;5093843;28;20092;-65
2021/12/13 05:16:26;;;;;;;11.25;7.20;;;9.80;99.90;;;;;;5091936;28;20093;-66
2021/12/13 05:18:54;;;;;;;11.32;7.55;;;9.80;99.90;;;;;;5093794;28;20040;-65
2021/12/13 05:21:37;;;;;;;12.43;7.43;;;9.80;99.90;;;;;;5092929;28;20056;-66
2021/12/13 05:24:10;;;;;;;12.73;7.88;;;9.80;99.90;;;;;;5091991;28;20077;-65
2021/12/13 05:26:55;;;;;;;15.97;8.07;;;9.90;99.90;;;;;;5093729;28;20369;-69
2021/12/13 05:29:32;;;;;;;14.20;8.38;;;9.90;99.90;;;;;;5093111;28;20036;-70
2021/12/13 05:32:12;;;;;;;14.55;8.25;;;9.80;99.90;;;;;;5072229;28;20381;-69
2021/12/13 05:34:46;;;;;;;14.50;9.50;;;9.90;99.90;;;;;;5072486;28;20136;-70
2021/12/13 05:37:12;;;;;;;16.42;9.07;;;9.80;99.90;;;;;;5072971;28;20052;-71
2021/12/13 05:40:00;;;;;;;13.60;8.40;;;9.80;99.90;;;;;;5074744;28;20115;-70
2021/12/13 05:42:44;;;;;;;16.75;9.32;;;9.80;99.90;;;;;;5092540;28;20048;-70
2021/12/13 05:45:14;;;;;;;17.35;10.13;;;9.80;99.90;;;;;;5093065;28;20044;-70
2021/12/13 05:48:04;;;;;;;17.45;10.30;;;9.80;99.90;;;;;;5093395;28;20066;-70
2021/12/13 05:50:36;;;;;;;14.63;9.63;;;9.80;99.90;;;;;;5087854;28;20052;-70
2021/12/13 05:53:07;;;;;;;17.20;10.25;;;9.80;99.90;;;;;;5072919;28;20381;-72
2021/12/13 05:55:56;;;;;;;17.42;10.90;;;9.80;99.90;;;;;;5072152;28;20044;-71
2021/12/13 05:58:38;;;;;;;18.17;10.25;;;9.80;99.90;;;;;;5074730;28;20040;-70
2021/12/13 06:01:27;;;;;;;17.05;11.02;;;9.90;99.90;;;;;;5076487;28;20048;-71
2021/12/13 06:04:07;;;;;;;20.55;11.68;;;9.80;99.90;;;;;;5071724;28;20477;-70
2021/12/13 06:06:43;;;;;;;19.05;11.77;;;9.80;99.90;;;;;;5075574;28;20028;-71
2021/12/13 06:09:10;;;;;;;18.85;11.70;;;9.80;99.90;;;;;;5076123;28;20036;-70
2021/12/13 06:11:39;;;;;;;21.52;10.77;;;9.80;99.90;;;;;;5078664;28;20036;-71
2021/12/13 06:14:14;;;;;;;21.02;12.63;;;9.80;99.90;;;;;;5075171;28;20047;-71
2021/12/13 06:16:58;;;;;;;20.38;12.70;;;9.80;99.90;;;;;;5075804;28;20391;-70
2021/12/13 06:19:28;;;;;;;18.15;12.90;;;9.80;99.90;;;;;;5075913;28;20423;-70
2021/12/13 06:22:11;;;;;;;19.75;13.38;;;9.80;99.90;;;;;;5080386;28;20136;-69
2021/12/13 06:24:52;;;;;;;18.38;12.80;;;9.80;99.90;;;;;;5075582;28;20106;-69
2021/12/13 06:27:22;;;;;;;18.58;13.10;;;9.80;99.90;;;;;;5075026;28;20036;-68
2021/12/13 06:30:04;;;;;;;21.00;14.02;;;9.80;99.90;;;;;;5079095;28;20044;-69
2021/12/13 06:32:32;;;;;;;21.42;14.40;;;9.80;99.90;;;;;;5075625;28;20116;-70
2021/12/13 06:35:19;;;;;;;22.00;14.05;;;9.80;99.90;;;;;;5075573;28;20040;-68
2021/12/13 06:37:44;;;;;;;22.75;15.40;;;9.80;99.90;;;;;;5075841;28;20167;-69
2021/12/13 06:40:29;;;;;;;23.00;15.30;;;9.80;99.90;;;;;;5081812;28;20111;-68
2021/12/13 06:43:00;;;;;;;22.15;15.15;;;9.80;99.90;;;;;;5075379;28;20469;-68
2021/12/13 06:45:35;;;;;;;22.23;15.25;;;9.80;99.90;;;;;;5093094;28;20381;-67
2021/12/13 06:48:05;;;;;;;22.23;14.70;;;9.80;99.90;;;;;;5095878;28;20036;-68
2021/12/13 06:50:36;;;;;;;22.23;15.27;;;9.80;99.90;;;;;;5093531;28;20049;-68
2021/12/13 06:53:12;;;;;;;22.73;15.18;;;9.80;99.90;;;;;;5096166;28;20040;-67
2021/12/13 06:55:38;;;;;;;24.98;16.02;;;9.80;99.90;;;;;;5095701;28;20043;-67
2021/12/13 06:58:14;;;;;;;25.42;17.13;;;9.80;99.90;;;;;;5095793;28;20122;-67
2021/12/13 07:00:40;;;;;;;25.75;16.60;;;9.80;99.90;;;;;;5088094;28;20037;-70
2021/12/13 07:03:09;;;;;;;27.73;16.33;;;9.80;99.90;;;;;;5074892;28;20464;-68
2021/12/13 07:05:41;;;;;;;22.95;16.25;;;9.90;99.90;;;;;;5092347;28;20036;-68
2021/12/13 07:08:11;;;;;;;23.25;16.45;;;9.80;99.90;;;;;;5089036;28;20040;-68
2021/12/13 07:10:41;;;;;;;23.50;16.25;;;9.80;99.90;;;;;;5078054;28;20041;-70
2021/12/13 07:13:11;;;;;;;23.45;16.30;;;9.90;99.90;;;;;;5075411;28;20044;-66
2021/12/13 07:15:40;;;;;;;22.38;15.65;;;9.80;99.90;;;;;;5074487;28;20394;-67
2021/12/13 07:18:22;;;;;;;25.77;17.00;;;9.90;99.90;;;;;;5074541;28;20055;-67
2021/12/13 07:21:04;;;;;;;21.67;16.00;;;9.90;99.90;;;;;;5084856;28;20052;-67
2021/12/13 07:23:54;;;;;;;21.27;15.93;;;9.90;99.90;;;;;;5095784;28;20044;-67
2021/12/13 07:26:33;;;;;;;23.55;16.05;;;9.80;99.90;;;;;;5095513;28;20035;-66
2021/12/13 07:29:00;;;;;;;23.40;16.73;;;9.90;99.90;;;;;;5084198;28;20461;-66
2021/12/13 07:31:26;;;;;;;25.23;15.75;;;9.90;99.90;;;;;;5090143;28;20055;-67
2021/12/13 07:33:52;;;;;;;22.73;16.98;;;9.90;99.90;;;;;;5094919;28;20130;-65
2021/12/13 07:36:25;;;;;;;24.45;16.42;;;9.90;99.90;;;;;;5095288;28;20068;-65
2021/12/13 07:39:15;;;;;;;25.05;16.98;;;9.90;99.90;;;;;;5095403;28;20047;-66
2021/12/13 07:41:47;;;;;;;23.77;17.10;;;9.90;99.90;;;;;;5085026;28;20073;-66
2021/12/13 07:44:31;;;;;;;22.50;15.15;;;9.80;99.90;;;;;;5094740;28;20044;-66
2021/12/13 07:47:17;;;;;;;23.95;17.02;;;9.80;99.90;;;;;;5094989;28;20057;-66
2021/12/13 07:49:47;;;;;;;22.42;16.80;;;9.80;99.90;;;;;;5094903;28;20046;-65
2021/12/13 07:52:35;;;;;;;23.60;16.08;;;9.80;99.90;;;;;;5095291;28;20131;-66
2021/12/13 07:55:22;;;;;;;21.38;15.93;;;9.80;99.90;;;;;;5094565;28;20054;-65
2021/12/13 07:57:49;;;;;;;20.05;14.88;;;9.80;99.90;;;;;;5094792;28;20346;-66
2021/12/13 08:00:17;;;;;;;22.38;15.38;;;9.80;99.90;;;;;;5081346;28;20044;-66
2021/12/13 08:03:13;;;;;;;23.17;15.48;;;9.80;99.90;;;;;;5094525;28;20119;-66
2021/12/13 08:05:51;;;;;;;20.88;14.88;;;9.80;99.90;;;;;;5093789;28;20062;-66
2021/12/13 08:08:27;;;;;;;23.15;15.60;;;9.80;99.90;;;;;;5094472;28;20373;-65
2021/12/13 08:10:59;;;;;;;21.15;15.40;;;9.80;99.90;;;;;;5086949;28;20382;-65
2021/12/13 08:13:28;;;;;;;19.83;15.35;;;9.80;99.90;;;;;;5074355;28;20029;-67
2021/12/13 08:15:59;;;;;;;20.10;15.07;;;9.80;99.90;;;;;;5073759;28;20048;-65
2021/12/13 08:18:37;;;;;;;18.17;14.35;;;9.80;99.90;;;;;;5075373;28;20024;-64
2021/12/13 08:21:25;;;;;;;20.95;14.00;;;9.80;99.90;;;;;;5085994;28;20048;-65
2021/12/13 08:24:00;;;;;;;21.70;15.35;;;9.80;99.90;;;;;;5094153;28;20128;-64
2021/12/13 08:26:40;;;;;;;18.98;14.07;;;9.80;99.90;;;;;;5094352;28;20374;-65
2021/12/13 08:29:16;;;;;;;17.08;13.40;;;9.80;99.90;;;;;;5094092;28;20044;-66
2021/12/13 08:31:45;;;;;;;19.23;13.95;;;9.80;99.90;;;;;;5094137;28;20050;-65
2021/12/13 08:34:20;;;;;;;20.42;14.48;;;9.80;99.90;;;;;;5094306;28;20044;-65
2021/12/13 08:36:50;;;;;;;20.23;13.88;;;9.80;99.90;;;;;;5094270;28;20040;-66
2021/12/13 08:39:18;;;;;;;22.77;15.20;;;9.90;99.90;;;;;;5094288;28;20047;-65
2021/12/13 08:41:57;;;;;;;22.60;14.73;;;9.90;99.90;;;;;;5086240;28;20029;-66
2021/12/13 08:44:55;;;;;;;21.60;14.65;;;9.90;99.90;;;;;;5073147;28;20033;-66
2021/12/13 08:47:30;;;;;;;20.63;13.63;;;9.90;99.90;;;;;;5029232;28;20044;-66
2021/12/13 08:50:00;;;;;;;20.33;13.93;;;9.90;99.90;;;;;;5076366;28;20104;-65
2021/12/13 08:52:30;;;;;;;20.70;15.07;;;9.90;99.90;;;;;;5093961;28;20047;-67
2021/12/13 08:54:58;;;;;;;19.08;13.65;;;9.90;99.90;;;;;;5092821;28;20330;-65
2021/12/13 08:57:56;;;;;;;21.17;14.05;;;9.90;99.90;;;;;;5094086;28;20096;-65
2021/12/13 09:00:39;;;;;;;21.08;14.65;;;9.90;99.90;;;;;;5067417;28;20151;-67
2021/12/13 09:03:21;;;;;;;21.65;14.35;;;9.90;99.90;;;;;;5093842;28;20044;-66
2021/12/13 09:05:56;;;;;;;22.15;14.23;;;9.90;99.90;;;;;;5093193;28;20472;-67
2021/12/13 09:08:45;;;;;;;23.58;15.07;;;9.80;99.90;;;;;;5092768;28;20368;-65
2021/12/13 09:11:40;;;;;;;23.17;14.60;;;9.90;99.90;;;;;;5082644;28;20080;-65
2021/12/13 09:14:23;;;;;;;;;;;9.90;99.90;;;;;;5076095;28;20048;-65
2021/12/13 09:17:07;;;;;;;21.13;14.82;;;9.90;99.90;;;;;;5090316;28;19935;-65
2021/12/13 09:19:44;;;;;;;21.98;15.15;;;9.80;99.90;;;;;;5073289;28;20033;-65
2021/12/13 09:22:29;;;;;;;20.92;14.25;;;9.90;99.90;;;;;;5073855;28;20052;-65
2021/12/13 09:24:54;;;;;;;24.17;16.02;;;10.00;99.90;;;;;;5073386;28;20033;-65
2021/12/13 09:28:01;;;;;;;22.80;15.48;;;9.90;99.90;;;;;;5073183;28;20121;-65
2021/12/13 09:30:45;;;;;;;23.38;14.90;;;10.00;99.90;;;;;;5077847;28;20055;-65
2021/12/13 09:33:19;;;;;;;22.55;15.05;;;10.10;99.90;;;;;;5074093;28;20048;-66
2021/12/13 09:35:48;;;;;;;23.52;15.40;;;10.00;99.90;;;;;;5073157;28;20074;-65
2021/12/13 09:38:37;;;;;;;24.08;16.67;;;10.10;99.90;;;;;;5073489;28;20463;-65
2021/12/13 09:41:21;;;;;;;24.40;15.10;;;10.00;99.90;;;;;;5087331;28;20063;-65
2021/12/13 09:44:30;;;;;;;23.77;15.05;;;10.00;99.90;;;;;;5097129;28;20179;-65
2021/12/13 09:46:59;;;;;;;26.15;14.80;;;10.10;99.90;;;;;;5088830;28;20044;-66
2021/12/13 09:50:03;;;;;;;23.25;14.13;;;10.00;99.90;;;;;;5096519;28;20762;-67
2021/12/13 09:52:50;;;;;;;24.00;16.17;;;10.10;99.90;;;;;;5045769;28;20158;-67
2021/12/13 09:55:30;;;;;;;22.58;15.27;;;10.10;99.90;;;;;;5076655;28;20068;-67
2021/12/13 09:58:10;;;;;;;23.10;15.77;;;10.10;99.90;;;;;;5077166;28;20119;-67
2021/12/13 10:00:43;;;;;;;24.02;15.63;;;10.10;99.90;;;;;;5084664;28;20065;-68
2021/12/13 10:03:18;;;;;;;23.83;15.32;;;10.10;99.90;;;;;;5097340;28;20119;-69
2021/12/13 10:05:47;;;;;;;27.20;15.82;;;10.10;99.90;;;;;;5096766;28;20036;-67
2021/12/13 10:08:18;;;;;;;23.13;14.68;;;10.10;99.90;;;;;;5097162;28;20067;-66
2021/12/13 10:10:50;;;;;;;20.45;14.77;;;10.10;99.90;;;;;;5096865;28;20028;-66
2021/12/13 10:13:23;;;;;;;24.10;14.90;;;10.10;99.90;;;;;;5096944;28;20040;-67
2021/12/13 10:15:54;;;;;;;22.60;13.75;;;10.10;99.90;;;;;;5096699;28;20057;-67
2021/12/13 10:18:26;;;;;;;24.00;14.45;;;10.10;99.90;;;;;;5097180;28;20058;-66
2021/12/13 10:20:59;;;;;;;25.15;15.15;;;10.10;99.90;;;;;;5096316;28;20055;-66
2021/12/13 10:23:30;;;;;;;22.77;12.98;;;10.10;99.90;;;;;;5096652;28;20063;-67
2021/12/13 10:25:59;;;;;;;23.27;13.77;;;10.10;99.90;;;;;;5096850;28;20063;-67
2021/12/13 10:28:31;;;;;;;23.13;14.07;;;10.10;99.90;;;;;;5095585;28;20051;-66
2021/12/13 10:31:04;;;;;;;22.55;13.93;;;10.20;99.90;;;;;;5096295;28;20040;-66
2021/12/13 10:33:31;;;;;;;20.92;13.05;;;10.20;99.90;;;;;;5096345;28;20071;-66
2021/12/13 10:36:00;;;;;;;17.45;12.98;;;10.20;99.90;;;;;;5096457;28;20111;-66
2021/12/13 10:38:31;;;;;;;22.48;13.63;;;10.30;99.90;;;;;;5096388;28;20047;-67
2021/12/13 10:41:01;;;;;;;22.02;13.13;;;10.30;99.90;;;;;;5096209;28;20047;-66
2021/12/13 10:43:37;;;;;;;20.92;13.15;;;10.30;99.90;;;;;;5096000;28;20326;-67
2021/12/13 10:46:11;;;;;;;22.88;13.23;;;10.30;99.90;;;;;;5096246;28;20119;-69
2021/12/13 10:48:45;;;;;;;20.85;13.40;;;10.30;99.90;;;;;;5096326;28;20036;-66
2021/12/13 10:51:21;;;;;;;22.25;13.98;;;10.30;99.90;;;;;;5095633;28;20047;-65
2021/12/13 10:53:49;;;;;;;18.92;12.70;;;10.30;99.90;;;;;;5090215;28;20044;-66
2021/12/13 10:56:22;;;;;;;22.67;14.15;;;10.30;99.90;;;;;;5075943;28;20032;-66
2021/12/13 10:58:53;;;;;;;20.77;13.60;;;10.30;99.90;;;;;;5075739;28;20093;-66
2021/12/13 11:01:31;;;;;;;21.98;14.30;;;10.30;99.90;;;;;;5087726;28;20051;-67
2021/12/13 11:04:00;;;;;;;22.70;14.13;;;10.30;99.90;;;;;;5095181;28;20457;-68
2021/12/13 11:06:26;;;;;;;21.60;13.80;;;10.30;99.90;;;;;;5095884;28;20040;-68
2021/12/13 11:08:52;;;;;;;24.73;14.80;;;10.40;99.90;;;;;;5095819;28;20032;-67
2021/12/13 11:11:31;;;;;;;20.63;12.88;;;10.40;99.90;;;;;;5095271;28;20541;-68
2021/12/13 11:14:02;;;;;;;22.02;13.45;;;10.40;99.90;;;;;;5095570;28;20036;-67
2021/12/13 11:16:35;;;;;;;21.85;13.55;;;10.40;99.90;;;;;;5095672;28;20044;-67
2021/12/13 11:19:04;;;;;;;20.83;13.87;;;10.40;99.90;;;;;;5095714;28;20043;-68
2021/12/13 11:21:34;;;;;;;20.90;13.45;;;10.40;99.90;;;;;;5079901;28;20145;-66
2021/12/13 11:24:00;;;;;;;23.70;14.07;;;10.40;99.90;;;;;;5074574;28;20141;-67
2021/12/13 11:26:31;;;;;;;20.58;13.18;;;10.50;99.90;;;;;;5073608;28;20040;-68
2021/12/13 11:28:59;;;;;;;21.83;13.73;;;10.40;99.90;;;;;;5078043;28;20040;-66
2021/12/13 11:31:30;;;;;;;19.77;12.93;;;10.40;99.90;;;;;;5088655;28;20147;-67
2021/12/13 11:34:03;;;;;;;24.30;13.13;;;10.40;99.90;;;;;;5095042;28;20185;-68
2021/12/13 11:36:50;;;;;;;19.73;13.80;;;10.50;99.90;;;;;;5095348;28;20048;-67
2021/12/13 11:39:27;;;;;;;23.50;14.00;;;10.50;99.90;;;;;;5094733;28;20040;-67
2021/12/13 11:42:20;;;;;;;21.65;13.55;;;10.50;99.90;;;;;;5094956;28;20056;-67
2021/12/13 11:45:12;;;;;;;21.60;13.70;;;10.50;99.90;;;;;;5094651;28;20172;-66
2021/12/13 11:47:53;;;;;;;22.55;13.23;;;10.60;99.90;;;;;;5095174;28;20059;-67
2021/12/13 11:50:38;;;;;;;20.08;13.60;;;10.60;99.90;;;;;;5094938;28;20051;-67
2021/12/13 11:53:30;;;;;;;21.60;12.63;;;10.60;99.90;;;;;;5091648;28;20119;-68
2021/12/13 11:56:32;;;;;;;20.88;13.15;;;10.60;99.90;;;;;;5074356;28;20040;-73
2021/12/13 11:59:04;;;;;;;21.17;13.23;;;10.60;99.90;;;;;;5074492;28;20044;-73
2021/12/13 12:02:06;;;;;;;19.98;13.10;;;10.60;99.90;;;;;;5088203;28;20465;-72
2021/12/13 12:05:09;;;;;;;21.00;13.02;;;10.60;99.90;;;;;;5088344;28;20075;-73
2021/12/13 12:08:06;;;;;;;21.13;13.63;;;10.60;99.90;;;;;;5093562;28;20415;-73
2021/12/13 12:10:56;;;;;;;19.25;13.35;;;10.60;99.90;;;;;;5094145;28;20449;-74
2021/12/13 12:13:50;;;;;;;19.33;13.20;;;10.60;99.90;;;;;;5094196;28;20040;-74
2021/12/13 12:16:21;;;;;;;19.83;12.35;;;10.70;99.90;;;;;;5094404;28;20055;-75
2021/12/13 12:18:47;;;;;;;20.70;12.95;;;10.70;99.90;;;;;;5094440;28;20047;-75
2021/12/13 12:21:31;;;;;;;19.65;12.32;;;10.80;99.90;;;;;;5093731;28;20140;-75
2021/12/13 12:23:59;;;;;;;21.52;13.50;;;10.80;99.90;;;;;;5093959;28;20050;-75
2021/12/13 12:26:26;;;;;;;19.38;12.98;;;10.70;99.90;;;;;;5094377;28;20050;-75
2021/12/13 12:29:02;;;;;;;19.80;12.70;;;10.80;99.90;;;;;;5093933;28;20032;-75
2021/12/13 12:31:34;;;;;;;20.20;12.77;;;10.80;99.90;;;;;;5088392;28;20102;-74
2021/12/13 12:34:02;;;;;;;20.58;12.43;;;10.80;99.90;;;;;;5085306;28;20044;-74
2021/12/13 12:36:57;;;;;;;19.13;12.07;;;10.80;99.90;;;;;;5093683;28;20043;-75
2021/12/13 12:39:37;;;;;;;21.77;12.75;;;10.90;99.90;;;;;;5093931;28;20416;-75
2021/12/13 12:42:24;;;;;;;19.80;12.55;;;10.90;99.90;;;;;;5093677;28;20068;-75
2021/12/13 12:44:56;;;;;;;17.35;11.95;;;10.90;99.90;;;;;;5093405;28;20185;-75
2021/12/13 12:47:47;;;;;;;19.48;11.57;;;10.90;99.90;;;;;;5093814;28;20046;-74
2021/12/13 12:50:16;;;;;;;19.85;12.32;;;11.00;99.90;;;;;;5082573;28;20056;-74
2021/12/13 12:52:56;;;;;;;19.08;11.65;;;10.90;99.90;;;;;;5088356;28;20055;-74
2021/12/13 12:55:33;;;;;;;20.33;12.52;;;10.90;99.90;;;;;;5085207;28;20094;-74
2021/12/13 12:58:05;;;;;;;19.15;12.38;;;10.90;99.90;;;;;;5091949;28;20047;-76
2021/12/13 13:00:31;;;;;;;19.17;13.18;;;10.90;99.90;;;;;;5092368;28;20036;-74
2021/12/13 13:02:57;;;;;;;16.23;11.57;;;10.90;99.90;;;;;;5075974;28;20040;-73
2021/12/13 13:05:27;;;;;;;17.95;12.05;;;10.90;99.90;;;;;;5092572;28;20059;-74
2021/12/13 13:07:54;;;;;;;18.15;12.00;;;10.90;99.90;;;;;;5077656;28;20062;-76
2021/12/13 13:13:00;;;;;;;22.23;12.57;;;10.90;99.90;;;;;;5092072;28;20484;-74
2021/12/13 13:15:33;;;;;;;21.08;12.00;;;10.90;99.90;;;;;;5095491;28;20127;-75
2021/12/13 13:18:09;;;;;;;19.80;12.13;;;10.90;99.90;;;;;;5096729;28;20050;-75
2021/12/13 13:20:42;;;;;;;23.20;12.32;;;10.90;99.90;;;;;;5096950;28;20297;-75
2021/12/13 13:23:09;;;;;;;18.45;11.07;;;10.90;99.90;;;;;;5097397;28;20047;-76
2021/12/13 13:25:40;;;;;;;16.17;11.63;;;10.90;99.90;;;;;;5097723;28;20180;-75
2021/12/13 13:28:27;;;;;;;16.70;11.40;;;10.90;99.90;;;;;;5097873;28;20036;-75
2021/12/13 13:30:56;;;;;;;19.67;11.07;;;11.00;99.90;;;;;;5097706;28;20083;-76
2021/12/13 13:33:37;;;;;;;16.48;10.88;;;10.90;99.90;;;;;;5097583;28;20143;-77